Time;durP1;ratioP1;P1;durP2;ratioP2;P2;SDS_P1;SDS_P2;PMS_P1;PMS_P2;Temp;Humidity;BMP_temperature;BMP_pressure;BME280_temperature;BME280_humidity;BME280_pressure;Samples;Min_cycle;Max_cycle;Signal;HPM_P1;HPM_P2
2022/08/17 00:01:44;;;;;;;31.73;28.23;;;;;;;;;;5078079;28;20050;-67
2022/08/17 00:04:11;;;;;;;33.28;27.35;;;;;;;;;;5087294;28;20051;-67
2022/08/17 00:06:37;;;;;;;32.30;28.88;;;;;;;;;;5080547;28;20165;-66
2022/08/17 00:09:04;;;;;;;37.15;31.25;;;;;;;;;;5082120;28;20037;-66
2022/08/17 00:11:33;;;;;;;33.10;29.60;;;;;;;;;;5078873;28;20051;-67
2022/08/17 00:14:02;;;;;;;33.35;28.70;;;;;;;;;;5079449;28;20051;-67
2022/08/17 00:16:30;;;;;;;32.97;29.08;;;;;;;;;;5079548;28;20077;-66
2022/08/17 00:18:58;;;;;;;34.47;30.73;;;;;;;;;;5080841;28;20072;-66
2022/08/17 00:21:24;;;;;;;34.53;28.52;;;;;;;;;;5071162;28;20052;-67
2022/08/17 00:23:51;;;;;;;35.42;29.92;;;;;;;;;;5081282;28;21934;-66
2022/08/17 00:26:18;;;;;;;30.08;25.23;;;;;;;;;;5078035;28;20122;-66
2022/08/17 00:28:45;;;;;;;30.70;27.42;;;;;;;;;;5069458;28;20512;-66
2022/08/17 00:31:11;;;;;;;34.95;30.90;;;;;;;;;;5073196;28;20051;-66
2022/08/17 00:33:39;;;;;;;33.28;29.63;;;;;;;;;;5079115;28;20036;-67
2022/08/17 00:36:06;;;;;;;33.95;30.33;;;;;;;;;;5073008;28;20504;-66
2022/08/17 00:38:32;;;;;;;32.05;28.55;;;;;;;;;;5071251;28;20059;-67
2022/08/17 00:41:01;;;;;;;39.70;33.55;;;;;;;;;;5073950;28;20050;-66
2022/08/17 00:43:28;;;;;;;36.25;32.35;;;;;;;;;;5074618;28;20172;-67
2022/08/17 00:45:55;;;;;;;41.75;33.55;;;;;;;;;;5072843;28;20049;-67
2022/08/17 00:48:21;;;;;;;32.35;28.90;;;;;;;;;;5070136;28;20513;-67
2022/08/17 00:50:57;;;;;;;36.78;32.53;;;;;;;;;;5081350;28;20047;-67
2022/08/17 00:53:25;;;;;;;35.45;31.00;;;;;;;;;;5080255;28;20051;-67
2022/08/17 00:55:52;;;;;;;31.25;26.85;;;;;;;;;;5073265;28;20066;-67
2022/08/17 00:58:18;;;;;;;29.73;26.63;;;;;;;;;;5072204;28;20039;-67
2022/08/17 01:00:46;;;;;;;34.95;31.10;;;;;;;;;;5073192;28;20040;-67
2022/08/17 01:03:15;;;;;;;35.15;30.73;;;;;;;;;;5072484;28;20081;-67
2022/08/17 01:05:42;;;;;;;35.58;30.20;;;;;;;;;;5070146;28;20048;-67
2022/08/17 01:08:10;;;;;;;34.95;31.23;;;;;;;;;;5075293;28;20063;-67
2022/08/17 01:10:41;;;;;;;33.25;28.55;;;;;;;;;;5079398;28;20087;-66
2022/08/17 01:13:08;;;;;;;30.13;26.90;;;;;;;;;;5080181;28;20048;-67
2022/08/17 01:15:36;;;;;;;33.58;29.98;;;;;;;;;;5070999;28;20052;-67
2022/08/17 01:18:04;;;;;;;32.65;27.50;;;;;;;;;;5089823;28;20539;-67
2022/08/17 01:20:31;;;;;;;32.00;28.52;;;;;;;;;;5080737;28;20121;-66
2022/08/17 01:22:57;;;;;;;32.13;28.17;;;;;;;;;;5070534;28;20384;-67
2022/08/17 01:25:23;;;;;;;30.77;27.67;;;;;;;;;;5076533;28;20055;-67
2022/08/17 01:27:49;;;;;;;31.40;28.00;;;;;;;;;;5084830;28;20040;-66
2022/08/17 01:30:16;;;;;;;35.15;28.38;;;;;;;;;;5067941;28;20437;-67
2022/08/17 01:32:42;;;;;;;34.58;27.83;;;;;;;;;;5083925;28;20112;-67
2022/08/17 01:35:09;;;;;;;26.23;23.45;;;;;;;;;;5076152;28;20036;-66
2022/08/17 01:37:38;;;;;;;25.25;22.70;;;;;;;;;;5076687;28;20046;-67
2022/08/17 01:40:10;;;;;;;25.23;22.25;;;;;;;;;;5081174;28;20035;-66
2022/08/17 01:42:43;;;;;;;25.48;22.77;;;;;;;;;;5074130;28;20054;-67
2022/08/17 01:45:11;;;;;;;24.95;21.40;;;;;;;;;;5080930;28;20039;-67
2022/08/17 01:47:37;;;;;;;24.80;22.23;;;;;;;;;;5091638;28;20052;-67
2022/08/17 01:50:07;;;;;;;25.77;23.08;;;;;;;;;;5080960;28;21344;-67
2022/08/17 01:52:34;;;;;;;24.00;21.38;;;;;;;;;;5082074;28;20044;-67
2022/08/17 01:55:00;;;;;;;22.42;18.25;;;;;;;;;;5074643;28;20298;-67
2022/08/17 01:57:27;;;;;;;19.17;16.75;;;;;;;;;;5077206;28;20394;-67
2022/08/17 01:59:53;;;;;;;19.38;17.48;;;;;;;;;;5073093;28;20055;-67
2022/08/17 02:02:19;;;;;;;19.15;17.10;;;;;;;;;;5079926;28;20040;-67
2022/08/17 02:04:45;;;;;;;27.08;23.35;;;;;;;;;;5078767;28;20059;-67
2022/08/17 02:07:11;;;;;;;32.42;27.02;;;;;;;;;;5078235;28;20116;-67
2022/08/17 02:09:37;;;;;;;24.63;19.38;;;;;;;;;;5078506;28;20502;-66
2022/08/17 02:12:04;;;;;;;21.90;19.65;;;;;;;;;;5071423;28;20372;-66
2022/08/17 02:14:30;;;;;;;27.52;24.15;;;;;;;;;;5073395;28;20112;-67
2022/08/17 02:16:56;;;;;;;19.38;17.20;;;;;;;;;;5085284;28;20484;-67
2022/08/17 02:19:22;;;;;;;28.85;20.95;;;;;;;;;;5077064;28;20080;-67
2022/08/17 02:21:50;;;;;;;26.80;22.30;;;;;;;;;;5073549;28;20033;-66
2022/08/17 02:24:22;;;;;;;26.42;22.63;;;;;;;;;;5069804;28;20398;-67
2022/08/17 02:26:48;;;;;;;30.48;24.73;;;;;;;;;;5072577;28;20048;-67
2022/08/17 02:29:15;;;;;;;29.98;25.63;;;;;;;;;;5072284;28;20090;-67
2022/08/17 02:31:41;;;;;;;30.25;26.73;;;;;;;;;;5076703;28;20143;-66
2022/08/17 02:34:08;;;;;;;32.97;28.25;;;;;;;;;;5073345;28;20360;-67
2022/08/17 02:36:34;;;;;;;31.77;28.33;;;;;;;;;;5071754;28;20047;-67
2022/08/17 02:39:02;;;;;;;34.85;26.92;;;;;;;;;;5067041;28;20512;-67
2022/08/17 02:41:28;;;;;;;26.65;23.20;;;;;;;;;;5069114;28;20044;-67
2022/08/17 02:43:54;;;;;;;28.98;25.90;;;;;;;;;;5073584;28;20035;-67
2022/08/17 02:46:21;;;;;;;34.53;22.77;;;;;;;;;;5078808;28;20078;-67
2022/08/17 02:48:47;;;;;;;40.40;22.83;;;;;;;;;;5079022;28;20052;-67
2022/08/17 02:51:14;;;;;;;61.67;20.42;;;;;;;;;;5074216;28;20047;-66
2022/08/17 02:53:40;;;;;;;66.60;21.30;;;;;;;;;;5071272;28;20039;-67
2022/08/17 02:56:06;;;;;;;76.47;22.10;;;;;;;;;;5072868;28;20052;-66
2022/08/17 02:58:32;;;;;;;79.53;20.77;;;;;;;;;;5083740;28;20075;-67
2022/08/17 03:00:59;;;;;;;105.88;20.65;;;;;;;;;;5078347;28;20044;-66
2022/08/17 03:03:25;;;;;;;100.25;20.23;;;;;;;;;;5071462;28;20048;-66
2022/08/17 03:05:52;;;;;;;272.30;23.30;;;;;;;;;;5074250;28;20049;-67
2022/08/17 03:08:19;;;;;;;80.50;16.75;;;;;;;;;;5071114;28;20040;-66
2022/08/17 03:10:45;;;;;;;132.07;16.10;;;;;;;;;;5069668;28;20482;-66
2022/08/17 03:13:13;;;;;;;114.32;16.13;;;;;;;;;;5078483;28;20056;-67
2022/08/17 03:15:40;;;;;;;259.90;20.80;;;;;;;;;;5072825;28;20117;-67
2022/08/17 03:18:06;;;;;;;184.05;18.80;;;;;;;;;;5077377;28;20120;-67
2022/08/17 03:20:35;;;;;;;72.80;16.38;;;;;;;;;;5077655;28;20125;-66
2022/08/17 03:23:02;;;;;;;59.97;15.95;;;;;;;;;;5078508;28;20052;-67
2022/08/17 03:25:29;;;;;;;28.13;14.88;;;;;;;;;;5083570;28;20439;-67
2022/08/17 03:27:56;;;;;;;29.25;13.55;;;;;;;;;;5078912;28;20070;-66
2022/08/17 03:30:23;;;;;;;76.55;16.52;;;;;;;;;;5073014;28;20037;-67
2022/08/17 03:32:50;;;;;;;15.80;13.73;;;;;;;;;;5079392;28;20055;-67
2022/08/17 03:35:18;;;;;;;22.50;20.08;;;;;;;;;;5079136;28;20044;-66
2022/08/17 03:37:44;;;;;;;18.20;15.15;;;;;;;;;;5073678;28;20398;-66
2022/08/17 03:40:10;;;;;;;16.15;13.80;;;;;;;;;;5077219;28;20500;-67
2022/08/17 03:42:37;;;;;;;18.48;14.85;;;;;;;;;;5077880;28;20143;-66
2022/08/17 03:45:05;;;;;;;19.10;16.95;;;;;;;;;;5076868;28;20074;-66
2022/08/17 03:58:36;;;;;;;157.40;32.58;;;;;;;;;;5080125;28;20130;-66
2022/08/17 04:01:03;;;;;;;31.30;25.65;;;;;;;;;;5083117;28;20036;-66
2022/08/17 04:03:29;;;;;;;48.03;32.40;;;;;;;;;;5078128;28;20037;-66
2022/08/17 04:05:55;;;;;;;81.22;36.78;;;;;;;;;;5082715;28;20043;-67
2022/08/17 04:08:21;;;;;;;79.70;39.72;;;;;;;;;;5082151;28;21096;-66
2022/08/17 04:10:48;;;;;;;135.60;41.20;;;;;;;;;;5084483;28;20110;-67
2022/08/17 04:13:14;;;;;;;160.68;45.00;;;;;;;;;;5078030;28;20060;-66
2022/08/17 04:15:40;;;;;;;187.02;43.05;;;;;;;;;;5074721;28;20143;-67
2022/08/17 04:18:06;;;;;;;91.35;37.63;;;;;;;;;;5078112;28;20040;-67
2022/08/17 04:20:33;;;;;;;53.63;32.55;;;;;;;;;;5078428;28;20090;-67
2022/08/17 04:23:00;;;;;;;77.70;32.83;;;;;;;;;;5079900;28;20487;-66
2022/08/17 04:25:27;;;;;;;93.35;36.10;;;;;;;;;;5083569;28;20040;-67
2022/08/17 04:27:54;;;;;;;50.83;34.20;;;;;;;;;;5065154;28;20059;-66
2022/08/17 04:30:21;;;;;;;45.75;32.40;;;;;;;;;;5082253;28;20531;-66
2022/08/17 04:32:57;;;;;;;77.45;34.00;;;;;;;;;;5078468;28;20066;-66
2022/08/17 04:35:25;;;;;;;99.75;33.38;;;;;;;;;;5077350;28;20140;-66
2022/08/17 04:37:52;;;;;;;77.13;33.53;;;;;;;;;;5076444;28;20043;-67
2022/08/17 04:43:06;;;;;;;91.35;33.72;;;;;;;;;;5074714;28;20058;-66
2022/08/17 04:45:32;;;;;;;84.45;32.78;;;;;;;;;;5076123;28;20047;-67
2022/08/17 04:47:59;;;;;;;51.25;30.35;;;;;;;;;;5073863;28;20097;-66
2022/08/17 04:50:25;;;;;;;100.20;33.03;;;;;;;;;;5077680;28;20184;-66
2022/08/17 04:52:51;;;;;;;82.50;32.00;;;;;;;;;;5078378;28;20459;-66
2022/08/17 04:55:17;;;;;;;79.78;31.90;;;;;;;;;;5073309;28;20525;-66
2022/08/17 04:57:44;;;;;;;134.93;35.58;;;;;;;;;;5080119;28;20123;-67
2022/08/17 05:00:10;;;;;;;46.95;31.00;;;;;;;;;;5074227;28;20097;-66
2022/08/17 05:02:48;;;;;;;111.15;35.33;;;;;;;;;;5072488;28;20051;-66
2022/08/17 05:05:20;;;;;;;53.55;32.33;;;;;;;;;;5094536;28;20035;-66
2022/08/17 05:07:46;;;;;;;120.03;38.70;;;;;;;;;;5089534;28;20494;-67
2022/08/17 05:10:12;;;;;;;91.03;35.10;;;;;;;;;;5065861;28;20481;-67
2022/08/17 05:12:38;;;;;;;41.88;31.73;;;;;;;;;;5080847;28;20550;-67
2022/08/17 05:15:05;;;;;;;38.85;31.70;;;;;;;;;;5070950;28;20102;-67
2022/08/17 05:17:31;;;;;;;60.75;32.85;;;;;;;;;;5073684;28;20116;-67
2022/08/17 05:19:57;;;;;;;93.75;32.05;;;;;;;;;;5078025;28;20032;-67
2022/08/17 05:22:23;;;;;;;32.75;29.45;;;;;;;;;;5072912;28;20581;-65
2022/08/17 05:24:49;;;;;;;44.30;31.38;;;;;;;;;;5076653;28;20048;-65
2022/08/17 05:27:16;;;;;;;36.72;30.10;;;;;;;;;;5075998;28;20933;-66
2022/08/17 05:29:42;;;;;;;36.05;30.70;;;;;;;;;;5073991;28;20140;-65
2022/08/17 05:32:09;;;;;;;36.75;30.15;;;;;;;;;;5076402;28;20032;-65
2022/08/17 05:34:35;;;;;;;43.00;30.83;;;;;;;;;;5077864;28;20171;-65
2022/08/17 05:37:01;;;;;;;54.33;30.67;;;;;;;;;;5073922;28;20193;-66
2022/08/17 05:39:27;;;;;;;65.50;34.30;;;;;;;;;;5081557;28;20067;-65
2022/08/17 05:41:54;;;;;;;64.72;31.95;;;;;;;;;;5076365;28;20101;-65
2022/08/17 05:44:20;;;;;;;59.65;37.15;;;;;;;;;;5069082;28;20031;-64
2022/08/17 05:46:49;;;;;;;107.70;42.22;;;;;;;;;;5071329;28;20095;-64
2022/08/17 05:49:17;;;;;;;85.63;38.20;;;;;;;;;;5076285;28;20047;-67
2022/08/17 05:51:54;;;;;;;69.00;37.40;;;;;;;;;;5087760;28;20067;-66
2022/08/17 05:54:28;;;;;;;35.13;30.90;;;;;;;;;;5090280;28;20044;-68
2022/08/17 05:57:12;;;;;;;35.00;30.33;;;;;;;;;;5082567;28;20097;-67
2022/08/17 05:59:51;;;;;;;44.28;35.00;;;;;;;;;;5083809;28;20063;-67
2022/08/17 06:02:22;;;;;;;46.28;38.60;;;;;;;;;;5083793;28;20063;-68
2022/08/17 06:05:00;;;;;;;42.17;37.22;;;;;;;;;;5092712;28;20042;-67
2022/08/17 06:07:46;;;;;;;47.35;36.83;;;;;;;;;;5083106;28;20054;-67
2022/08/17 06:10:13;;;;;;;45.35;36.30;;;;;;;;;;5081044;28;20044;-67
2022/08/17 06:12:46;;;;;;;43.85;37.22;;;;;;;;;;5077052;28;20043;-67
2022/08/17 06:15:18;;;;;;;39.40;34.35;;;;;;;;;;5092643;28;20134;-66
2022/08/17 06:17:45;;;;;;;48.10;38.78;;;;;;;;;;5086778;28;20047;-67
2022/08/17 06:20:13;;;;;;;41.30;35.85;;;;;;;;;;5084230;28;20182;-64
2022/08/17 06:22:43;;;;;;;37.88;33.78;;;;;;;;;;5104457;27;20115;-65
2022/08/17 06:25:14;;;;;;;51.20;38.58;;;;;;;;;;5087446;28;20199;-65
2022/08/17 06:27:42;;;;;;;41.88;34.78;;;;;;;;;;5078600;28;20044;-66
2022/08/17 06:30:08;;;;;;;44.42;37.38;;;;;;;;;;5081292;28;20080;-65
2022/08/17 06:32:37;;;;;;;40.28;35.80;;;;;;;;;;5080236;28;20097;-65
2022/08/17 06:35:06;;;;;;;42.97;36.53;;;;;;;;;;5082475;28;20090;-65
2022/08/17 06:37:32;;;;;;;41.35;35.47;;;;;;;;;;5095520;28;20040;-64
2022/08/17 06:40:09;;;;;;;41.55;35.00;;;;;;;;;;5085321;28;20079;-64
2022/08/17 06:42:43;;;;;;;39.80;35.10;;;;;;;;;;5086480;28;20052;-65
2022/08/17 06:45:13;;;;;;;49.13;39.50;;;;;;;;;;5086140;28;20063;-65
2022/08/17 06:47:58;;;;;;;47.60;38.38;;;;;;;;;;5087806;28;20132;-64
2022/08/17 06:50:42;;;;;;;45.00;38.45;;;;;;;;;;5079635;28;20051;-65
2022/08/17 06:53:19;;;;;;;48.38;40.38;;;;;;;;;;5085661;28;20098;-65
2022/08/17 06:55:50;;;;;;;51.70;40.53;;;;;;;;;;5084440;28;20040;-65
2022/08/17 06:58:19;;;;;;;51.63;40.42;;;;;;;;;;5077223;28;21583;-65
2022/08/17 07:00:47;;;;;;;50.55;40.55;;;;;;;;;;5083668;28;20130;-65
2022/08/17 07:03:15;;;;;;;65.10;47.45;;;;;;;;;;5084559;28;20040;-65
2022/08/17 07:05:47;;;;;;;78.80;48.45;;;;;;;;;;5085599;28;20048;-65
2022/08/17 07:08:22;;;;;;;61.28;45.17;;;;;;;;;;5084312;28;20071;-65
2022/08/17 07:10:49;;;;;;;63.53;45.38;;;;;;;;;;5092640;28;20058;-65
2022/08/17 07:13:24;;;;;;;60.80;44.83;;;;;;;;;;5091734;28;20059;-65
2022/08/17 07:15:54;;;;;;;64.05;45.20;;;;;;;;;;5087753;28;20056;-64
2022/08/17 07:18:21;;;;;;;60.10;45.17;;;;;;;;;;5098965;28;20037;-65
2022/08/17 07:20:50;;;;;;;68.88;46.95;;;;;;;;;;5090662;28;20400;-65
2022/08/17 07:23:22;;;;;;;60.95;47.17;;;;;;;;;;5087963;28;20054;-65
2022/08/17 07:25:49;;;;;;;69.38;48.30;;;;;;;;;;5088181;28;20489;-65
2022/08/17 07:28:21;;;;;;;64.57;46.22;;;;;;;;;;5081618;28;20050;-66
2022/08/17 07:30:51;;;;;;;66.53;47.90;;;;;;;;;;5069551;28;20048;-64
2022/08/17 07:33:19;;;;;;;62.67;45.95;;;;;;;;;;5081961;28;20518;-65
2022/08/17 07:35:47;;;;;;;77.10;51.60;;;;;;;;;;5082358;28;20139;-65
2022/08/17 07:38:15;;;;;;;72.82;51.40;;;;;;;;;;5084646;28;20487;-65
2022/08/17 07:40:42;;;;;;;73.07;54.05;;;;;;;;;;5087723;28;20040;-66
2022/08/17 07:43:16;;;;;;;74.70;53.63;;;;;;;;;;5093165;28;20035;-67
2022/08/17 07:48:37;;;;;;;81.75;56.55;;;;;;;;;;5087833;28;20098;-65
2022/08/17 07:51:20;;;;;;;78.00;55.90;;;;;;;;;;5088250;28;20050;-65
2022/08/17 07:53:46;;;;;;;94.82;62.95;;;;;;;;;;5089883;28;20501;-65
2022/08/17 07:56:31;;;;;;;82.93;60.53;;;;;;;;;;5081426;28;20459;-65
2022/08/17 07:59:11;;;;;;;85.47;61.20;;;;;;;;;;5082149;28;20048;-65
2022/08/17 08:01:37;;;;;;;84.25;60.60;;;;;;;;;;5079511;28;20356;-65
2022/08/17 08:04:16;;;;;;;85.38;61.30;;;;;;;;;;5085544;28;20057;-64
2022/08/17 08:06:53;;;;;;;90.45;61.80;;;;;;;;;;5088249;28;20518;-65
2022/08/17 08:09:31;;;;;;;89.22;60.88;;;;;;;;;;5088273;28;20052;-65
2022/08/17 08:11:59;;;;;;;89.22;61.80;;;;;;;;;;5081261;28;20066;-65
2022/08/17 08:14:28;;;;;;;86.32;61.22;;;;;;;;;;5076811;28;20144;-64
2022/08/17 08:16:57;;;;;;;95.32;65.60;;;;;;;;;;5080951;28;20400;-64
2022/08/17 08:19:25;;;;;;;78.35;58.95;;;;;;;;;;5080499;28;20047;-65
2022/08/17 08:21:57;;;;;;;86.00;60.63;;;;;;;;;;5086182;28;20074;-65
2022/08/17 08:24:43;;;;;;;87.90;63.58;;;;;;;;;;5083580;28;20044;-65
2022/08/17 08:27:34;;;;;;;82.85;62.08;;;;;;;;;;5083226;28;20122;-65
2022/08/17 08:30:09;;;;;;;83.63;61.03;;;;;;;;;;5092113;28;20110;-65
2022/08/17 08:32:41;;;;;;;71.93;55.40;;;;;;;;;;5094874;28;20040;-64
2022/08/17 08:35:11;;;;;;;71.30;57.63;;;;;;;;;;5090810;28;20075;-65
2022/08/17 08:37:56;;;;;;;74.72;57.47;;;;;;;;;;5088705;28;20116;-64
2022/08/17 08:40:37;;;;;;;68.40;56.10;;;;;;;;;;5092274;28;20044;-65
2022/08/17 08:43:26;;;;;;;66.82;56.50;;;;;;;;;;5095620;28;20074;-65
2022/08/17 08:46:02;;;;;;;70.72;56.42;;;;;;;;;;5091625;28;20242;-65
2022/08/17 08:48:39;;;;;;;69.28;54.60;;;;;;;;;;5078245;28;20040;-65
2022/08/17 08:51:13;;;;;;;69.88;57.35;;;;;;;;;;5079019;28;20113;-65
2022/08/17 08:53:47;;;;;;;83.15;59.88;;;;;;;;;;5080885;28;20041;-65
2022/08/17 08:56:24;;;;;;;78.75;59.45;;;;;;;;;;5083673;28;20579;-65
2022/08/17 08:58:55;;;;;;;76.10;61.25;;;;;;;;;;5079823;28;20045;-65
2022/08/17 09:01:30;;;;;;;69.93;59.30;;;;;;;;;;5078843;28;20075;-65
2022/08/17 09:04:02;;;;;;;67.50;56.55;;;;;;;;;;5086633;28;20044;-66
2022/08/17 09:06:42;;;;;;;62.08;54.08;;;;;;;;;;5067748;28;20451;-65
2022/08/17 09:09:15;;;;;;;65.38;54.03;;;;;;;;;;5086284;28;20039;-68
2022/08/17 09:12:02;;;;;;;72.83;55.67;;;;;;;;;;5086222;28;20044;-66
2022/08/17 09:14:33;;;;;;;60.72;52.78;;;;;;;;;;5084383;28;20138;-66
2022/08/17 09:17:04;;;;;;;57.92;48.33;;;;;;;;;;5099502;28;20071;-66
2022/08/17 09:19:33;;;;;;;53.33;46.20;;;;;;;;;;5091764;28;20036;-66
2022/08/17 09:22:01;;;;;;;53.45;45.55;;;;;;;;;;5092770;28;20722;-66
2022/08/17 09:24:32;;;;;;;50.05;44.63;;;;;;;;;;5085484;28;20055;-65
2022/08/17 09:27:05;;;;;;;55.15;45.83;;;;;;;;;;5073958;28;20039;-66
2022/08/17 09:29:34;;;;;;;47.05;41.00;;;;;;;;;;5070349;28;20127;-66
2022/08/17 09:32:02;;;;;;;53.00;42.70;;;;;;;;;;5079929;28;20144;-66
2022/08/17 09:34:28;;;;;;;49.40;42.05;;;;;;;;;;5091582;28;20035;-66
2022/08/17 09:37:01;;;;;;;43.95;39.42;;;;;;;;;;5081891;28;20086;-67
2022/08/17 09:39:32;;;;;;;47.30;40.25;;;;;;;;;;5085580;28;20051;-66
2022/08/17 09:42:04;;;;;;;45.65;40.65;;;;;;;;;;5080067;28;20055;-65
2022/08/17 09:44:37;;;;;;;41.97;37.70;;;;;;;;;;5085401;28;20402;-66
2022/08/17 09:47:08;;;;;;;46.17;38.58;;;;;;;;;;5094483;28;20042;-66
2022/08/17 09:49:41;;;;;;;46.90;40.28;;;;;;;;;;5090031;28;20040;-66
2022/08/17 09:52:10;;;;;;;42.63;38.22;;;;;;;;;;5090649;28;20089;-65
2022/08/17 09:54:38;;;;;;;46.28;39.38;;;;;;;;;;5091222;28;20167;-66
2022/08/17 09:57:12;;;;;;;43.45;38.90;;;;;;;;;;5097314;28;20047;-66
2022/08/17 09:59:44;;;;;;;42.17;37.67;;;;;;;;;;5093867;28;20036;-78
2022/08/17 10:02:24;;;;;;;46.47;41.60;;;;;;;;;;5099704;28;20048;-66
2022/08/17 10:05:00;;;;;;;45.80;41.00;;;;;;;;;;5092828;28;20524;-67
2022/08/17 10:07:36;;;;;;;43.30;38.60;;;;;;;;;;5099087;28;20454;-67
2022/08/17 10:10:15;;;;;;;44.10;39.47;;;;;;;;;;5087880;28;20052;-67
2022/08/17 10:12:46;;;;;;;40.20;35.67;;;;;;;;;;5079064;28;20035;-67
2022/08/17 10:15:21;;;;;;;39.78;35.47;;;;;;;;;;5081366;28;20086;-67
2022/08/17 10:17:58;;;;;;;43.40;38.42;;;;;;;;;;5096878;28;20461;-67
2022/08/17 10:20:29;;;;;;;46.35;38.03;;;;;;;;;;5097211;28;20097;-68
2022/08/17 10:26:11;;;;;;;43.97;39.15;;;;;;;;;;5083269;28;20051;-67
2022/08/17 10:28:42;;;;;;;42.00;37.75;;;;;;;;;;5077270;28;20047;-80
2022/08/17 10:31:10;;;;;;;45.05;39.35;;;;;;;;;;5085227;28;20553;-69
2022/08/17 10:33:44;;;;;;;42.58;38.15;;;;;;;;;;5089791;28;20129;-70
2022/08/17 10:36:16;;;;;;;42.85;38.40;;;;;;;;;;5087148;28;20135;-73
2022/08/17 10:38:46;;;;;;;41.60;37.10;;;;;;;;;;5086925;28;20048;-69
2022/08/17 10:41:16;;;;;;;40.95;36.50;;;;;;;;;;5089990;28;20043;-71
2022/08/17 10:43:54;;;;;;;37.92;34.08;;;;;;;;;;5085004;28;20032;-71
2022/08/17 10:46:23;;;;;;;38.17;31.95;;;;;;;;;;5090474;28;20048;-71
2022/08/17 10:49:09;;;;;;;37.50;33.47;;;;;;;;;;5082100;28;20055;-71
2022/08/17 10:51:38;;;;;;;35.03;31.40;;;;;;;;;;5088023;28;20048;-71
2022/08/17 10:54:05;;;;;;;33.65;30.40;;;;;;;;;;5080518;28;20051;-71
2022/08/17 10:56:41;;;;;;;32.53;29.33;;;;;;;;;;5091904;28;20066;-71
2022/08/17 10:59:08;;;;;;;28.00;25.10;;;;;;;;;;5094003;28;20040;-71
2022/08/17 11:01:34;;;;;;;28.25;25.48;;;;;;;;;;5084450;28;20393;-71
2022/08/17 11:04:20;;;;;;;25.15;21.80;;;;;;;;;;5099816;28;20043;-71
2022/08/17 11:06:46;;;;;;;24.25;20.50;;;;;;;;;;5070096;28;20039;-71
2022/08/17 11:09:20;;;;;;;19.75;17.73;;;;;;;;;;5087959;28;20334;-71
2022/08/17 11:11:57;;;;;;;20.77;18.17;;;;;;;;;;5096650;28;20049;-71
2022/08/17 11:14:32;;;;;;;25.15;18.80;;;;;;;;;;5070457;28;20100;-72
2022/08/17 11:17:17;;;;;;;19.45;17.15;;;;;;;;;;5087042;28;20142;-71
2022/08/17 11:19:51;;;;;;;20.83;18.70;;;;;;;;;;5079820;28;20102;-71
2022/08/17 11:22:17;;;;;;;;;;;;;;;;;;5069201;28;20486;-71
2022/08/17 11:24:46;;;;;;;19.17;16.33;;;;;;;;;;5087744;28;19920;-71
2022/08/17 11:27:25;;;;;;;18.95;14.20;;;;;;;;;;5099603;28;20149;-71
2022/08/17 11:29:54;;;;;;;16.17;12.90;;;;;;;;;;5076157;28;20050;-71
2022/08/17 11:32:41;;;;;;;18.88;13.82;;;;;;;;;;5086946;28;20201;-71
2022/08/17 11:35:28;;;;;;;16.90;13.70;;;;;;;;;;5101128;28;20039;-71
2022/08/17 11:38:09;;;;;;;17.48;14.68;;;;;;;;;;5102864;28;20390;-70
2022/08/17 11:40:58;;;;;;;15.93;12.18;;;;;;;;;;5098644;28;20058;-71
2022/08/17 11:43:49;;;;;;;14.30;12.80;;;;;;;;;;5097610;28;20054;-71
2022/08/17 11:51:32;;;;;;;16.40;14.55;;;;;;;;;;5119102;27;20043;-70
2022/08/17 11:52:03;;;;;;;16.30;12.52;;;;;;;;;;5099948;28;20066;-71
2022/08/17 11:54:29;;;;;;;14.32;12.73;;;;;;;;;;5104008;28;20071;-70
2022/08/17 11:56:58;;;;;;;18.92;13.10;;;;;;;;;;5108854;28;20058;-70
2022/08/17 11:59:25;;;;;;;19.10;14.25;;;;;;;;;;5104147;28;20543;-71
2022/08/17 12:01:55;;;;;;;16.70;14.77;;;;;;;;;;5109501;28;20035;-71
2022/08/17 12:04:30;;;;;;;16.98;13.57;;;;;;;;;;5103660;28;20039;-70
2022/08/17 12:07:05;;;;;;;19.98;14.65;;;;;;;;;;5108833;28;20052;-70
2022/08/17 12:09:33;;;;;;;17.80;14.73;;;;;;;;;;5101751;28;20070;-70
2022/08/17 12:12:04;;;;;;;15.30;13.30;;;;;;;;;;5106232;28;20044;-70
2022/08/17 12:14:32;;;;;;;17.75;13.88;;;;;;;;;;5104866;28;20108;-70
2022/08/17 12:16:59;;;;;;;13.07;11.77;;;;;;;;;;5106169;28;20118;-70
2022/08/17 12:19:28;;;;;;;18.60;12.05;;;;;;;;;;5109216;28;20146;-70
2022/08/17 12:21:57;;;;;;;17.83;12.25;;;;;;;;;;5104677;28;20118;-70
2022/08/17 12:24:30;;;;;;;14.55;11.68;;;;;;;;;;5106905;28;20771;-70
2022/08/17 12:26:58;;;;;;;18.02;12.32;;;;;;;;;;5101914;28;20044;-71
2022/08/17 12:29:24;;;;;;;16.15;12.40;;;;;;;;;;5099536;28;20039;-70
2022/08/17 12:31:53;;;;;;;14.57;12.20;;;;;;;;;;5100325;28;20134;-70
2022/08/17 12:34:22;;;;;;;13.60;10.75;;;;;;;;;;5103222;28;20047;-70
2022/08/17 12:36:49;;;;;;;16.38;13.45;;;;;;;;;;5108114;27;20038;-70
2022/08/17 12:39:22;;;;;;;17.23;13.68;;;;;;;;;;5106225;28;20036;-71
2022/08/17 12:41:50;;;;;;;14.20;12.75;;;;;;;;;;5106898;28;20042;-70
2022/08/17 12:44:20;;;;;;;12.00;9.88;;;;;;;;;;5104361;28;20056;-70
2022/08/17 12:46:59;;;;;;;14.13;10.13;;;;;;;;;;5105457;28;20044;-70
2022/08/17 12:49:34;;;;;;;15.30;11.10;;;;;;;;;;5101839;28;20054;-70
2022/08/17 12:52:01;;;;;;;13.38;10.82;;;;;;;;;;5107598;28;20051;-70
2022/08/17 12:54:30;;;;;;;16.27;11.00;;;;;;;;;;5099659;28;20105;-70
2022/08/17 12:56:59;;;;;;;15.55;11.43;;;;;;;;;;5098890;28;20075;-70
2022/08/17 12:59:26;;;;;;;15.05;12.63;;;;;;;;;;5104517;28;20513;-71
2022/08/17 13:01:52;;;;;;;15.82;13.75;;;;;;;;;;5101781;28;20044;-71
2022/08/17 13:04:19;;;;;;;15.82;12.77;;;;;;;;;;5098329;28;20316;-71
2022/08/17 13:06:47;;;;;;;16.92;14.05;;;;;;;;;;5100049;28;20039;-71
2022/08/17 13:09:18;;;;;;;17.15;13.25;;;;;;;;;;5103815;28;20047;-71
2022/08/17 13:11:47;;;;;;;15.70;13.82;;;;;;;;;;5101876;28;20114;-70
2022/08/17 13:14:17;;;;;;;17.10;12.73;;;;;;;;;;5104696;28;20119;-70
2022/08/17 13:16:47;;;;;;;16.65;10.90;;;;;;;;;;5105030;28;20040;-70
2022/08/17 13:19:15;;;;;;;16.45;12.60;;;;;;;;;;5106524;28;20486;-70
2022/08/17 13:21:50;;;;;;;17.92;11.82;;;;;;;;;;5104355;28;20035;-70
2022/08/17 13:24:19;;;;;;;18.08;11.77;;;;;;;;;;5105647;28;20074;-70
2022/08/17 13:26:45;;;;;;;15.05;11.35;;;;;;;;;;5098008;28;20036;-70
2022/08/17 13:29:20;;;;;;;13.65;11.65;;;;;;;;;;5104572;28;20043;-70
2022/08/17 13:31:46;;;;;;;15.52;12.23;;;;;;;;;;5105370;28;20028;-70
2022/08/17 13:34:13;;;;;;;13.73;11.68;;;;;;;;;;5104725;28;20044;-70
2022/08/17 13:36:39;;;;;;;15.23;11.25;;;;;;;;;;5105021;28;20031;-71
2022/08/17 13:39:11;;;;;;;13.95;10.70;;;;;;;;;;5101165;28;20047;-71
2022/08/17 13:41:37;;;;;;;14.43;11.33;;;;;;;;;;5103706;28;20052;-70
2022/08/17 13:44:33;;;;;;;14.80;12.30;;;;;;;;;;5098459;28;20297;-70
2022/08/17 13:47:00;;;;;;;18.77;13.65;;;;;;;;;;5100750;28;20043;-70
2022/08/17 13:49:27;;;;;;;14.75;12.55;;;;;;;;;;5104022;28;20051;-71
2022/08/17 13:51:53;;;;;;;14.82;12.05;;;;;;;;;;5103964;28;20075;-70
2022/08/17 13:54:25;;;;;;;17.25;12.85;;;;;;;;;;5101293;28;20453;-70
2022/08/17 13:56:56;;;;;;;13.25;11.95;;;;;;;;;;5102029;28;20489;-70
2022/08/17 13:59:28;;;;;;;17.58;12.38;;;;;;;;;;5103330;28;20097;-70
2022/08/17 14:01:54;;;;;;;16.75;12.98;;;;;;;;;;5099293;28;20036;-71
2022/08/17 14:04:22;;;;;;;16.02;12.05;;;;;;;;;;5098967;28;20397;-71
2022/08/17 14:07:01;;;;;;;19.98;13.25;;;;;;;;;;5103221;28;20101;-70
2022/08/17 14:09:30;;;;;;;16.77;11.85;;;;;;;;;;5092573;28;20043;-70
2022/08/17 14:11:57;;;;;;;18.80;12.75;;;;;;;;;;5106327;28;20069;-71
2022/08/17 14:14:23;;;;;;;15.85;11.50;;;;;;;;;;5103866;28;20052;-70
2022/08/17 14:16:50;;;;;;;19.15;13.40;;;;;;;;;;5104140;28;20119;-70
2022/08/17 14:19:16;;;;;;;18.60;12.50;;;;;;;;;;5100833;28;20494;-70
2022/08/17 14:21:43;;;;;;;15.25;13.18;;;;;;;;;;5099618;28;20089;-70
2022/08/17 14:24:19;;;;;;;15.02;13.43;;;;;;;;;;5093116;28;20058;-70
2022/08/17 14:26:45;;;;;;;16.50;13.75;;;;;;;;;;5084253;28;20044;-70
2022/08/17 14:29:13;;;;;;;17.33;13.88;;;;;;;;;;5104480;28;20044;-70
2022/08/17 14:31:39;;;;;;;19.30;14.95;;;;;;;;;;5101327;28;20050;-70
2022/08/17 14:34:06;;;;;;;14.63;11.93;;;;;;;;;;5105255;28;20039;-70
2022/08/17 14:36:32;;;;;;;16.73;12.05;;;;;;;;;;5102043;28;20118;-70
2022/08/17 14:38:58;;;;;;;14.40;11.23;;;;;;;;;;5102966;28;20377;-70
2022/08/17 14:41:25;;;;;;;18.17;11.27;;;;;;;;;;5099040;28;20127;-70
2022/08/17 14:43:52;;;;;;;15.13;11.85;;;;;;;;;;5102942;28;20047;-70
2022/08/17 14:46:19;;;;;;;18.83;10.90;;;;;;;;;;5105261;28;20040;-70
2022/08/17 14:48:45;;;;;;;16.05;11.27;;;;;;;;;;5100616;28;20035;-71
2022/08/17 14:51:12;;;;;;;16.02;11.20;;;;;;;;;;5107426;28;20055;-71
2022/08/17 14:53:38;;;;;;;17.48;12.05;;;;;;;;;;5093629;28;20043;-71
2022/08/17 14:56:04;;;;;;;14.05;10.55;;;;;;;;;;5103008;28;20043;-71